Time;durP1;ratioP1;P1;durP2;ratioP2;P2;SDS_P1;SDS_P2;PMS_P1;PMS_P2;Temp;Humidity;BMP_temperature;BMP_pressure;BME280_temperature;BME280_humidity;BME280_pressure;Samples;Min_cycle;Max_cycle;Signal;HPM_P1;HPM_P2
2021/01/09 00:02:16;;;;;;;12.77;9.88;;;4.40;99.90;;;;;;5053311;28;20227;-45
2021/01/09 00:04:43;;;;;;;13.00;9.82;;;4.10;99.90;;;;;;5053548;28;20721;-46
2021/01/09 00:07:09;;;;;;;14.07;10.90;;;4.40;99.90;;;;;;5053117;28;20569;-46
2021/01/09 00:09:36;;;;;;;11.82;9.70;;;4.30;99.90;;;;;;5053148;28;20231;-46
2021/01/09 00:12:03;;;;;;;12.73;10.27;;;4.40;99.90;;;;;;5053488;28;20223;-45
2021/01/09 00:14:29;;;;;;;13.43;9.80;;;4.30;99.90;;;;;;5053063;28;20613;-46
2021/01/09 00:16:56;;;;;;;13.82;10.38;;;3.70;99.90;;;;;;5054410;28;20196;-46
2021/01/09 00:19:23;;;;;;;14.43;11.00;;;4.20;99.90;;;;;;5055152;28;20192;-46
2021/01/09 00:21:52;;;;;;;10.63;9.23;;;4.30;99.90;;;;;;5053819;28;20594;-46
2021/01/09 00:24:19;;;;;;;14.75;10.02;;;4.40;99.90;;;;;;5053405;28;20198;-46
2021/01/09 00:26:45;;;;;;;15.30;9.60;;;4.30;99.90;;;;;;5053087;28;20200;-46
2021/01/09 00:29:12;;;;;;;12.70;10.05;;;4.50;99.90;;;;;;5052799;28;20220;-46
2021/01/09 00:31:38;;;;;;;11.77;9.05;;;4.10;99.90;;;;;;5053048;28;20594;-47
2021/01/09 00:34:05;;;;;;;11.70;9.93;;;3.60;99.90;;;;;;5052520;28;20199;-46
2021/01/09 00:36:32;;;;;;;11.82;9.43;;;4.20;99.90;;;;;;5052761;28;20203;-46
2021/01/09 00:38:59;;;;;;;12.95;9.00;;;4.40;99.90;;;;;;5051492;28;20286;-46
2021/01/09 00:41:26;;;;;;;12.20;8.90;;;4.30;99.90;;;;;;5052591;28;20220;-46
2021/01/09 00:43:53;;;;;;;10.63;8.10;;;4.10;99.90;;;;;;5052422;28;20679;-46
2021/01/09 00:46:20;;;;;;;14.70;11.07;;;4.20;99.90;;;;;;5052564;28;20192;-46
2021/01/09 00:48:46;;;;;;;11.13;8.32;;;4.40;99.90;;;;;;5053131;28;20212;-46
2021/01/09 00:51:13;;;;;;;12.00;9.20;;;4.10;99.90;;;;;;5052524;28;20247;-46
2021/01/09 00:53:40;;;;;;;12.80;9.55;;;4.40;99.90;;;;;;5052902;28;20231;-46
2021/01/09 00:56:07;;;;;;;10.68;9.15;;;4.40;99.90;;;;;;5053489;28;20206;-46
2021/01/09 00:58:34;;;;;;;10.80;8.75;;;4.20;99.90;;;;;;5053631;28;20669;-46
2021/01/09 01:01:01;;;;;;;10.73;8.50;;;4.40;99.90;;;;;;5054862;28;20215;-46
2021/01/09 01:03:28;;;;;;;11.98;9.30;;;4.30;99.90;;;;;;5053418;28;20203;-46
2021/01/09 01:05:55;;;;;;;10.70;8.52;;;4.40;99.90;;;;;;5053341;28;20203;-46
2021/01/09 01:08:22;;;;;;;10.57;8.80;;;4.40;99.90;;;;;;5053556;28;20265;-46
2021/01/09 01:10:50;;;;;;;10.70;8.80;;;4.40;99.90;;;;;;5054082;28;20709;-46
2021/01/09 01:13:16;;;;;;;11.65;8.90;;;4.20;99.90;;;;;;5053750;28;20205;-46
2021/01/09 01:15:43;;;;;;;12.10;9.27;;;4.30;99.90;;;;;;5054528;28;20620;-46
2021/01/09 01:18:10;;;;;;;10.90;8.50;;;4.30;99.90;;;;;;5054263;28;20188;-46
2021/01/09 01:20:36;;;;;;;10.18;8.20;;;4.20;99.90;;;;;;5053003;28;20578;-46
2021/01/09 01:23:03;;;;;;;12.68;9.55;;;4.50;99.90;;;;;;5050847;28;20200;-46
2021/01/09 01:25:30;;;;;;;11.07;9.27;;;4.60;99.90;;;;;;5052438;28;20572;-46
2021/01/09 01:27:57;;;;;;;9.82;8.82;;;4.30;99.90;;;;;;5052397;28;20219;-46
2021/01/09 01:30:24;;;;;;;10.20;8.15;;;4.30;99.90;;;;;;5052060;28;20192;-47
2021/01/09 01:32:51;;;;;;;14.05;10.82;;;4.50;99.90;;;;;;5051652;28;20196;-47
2021/01/09 01:35:17;;;;;;;11.15;9.20;;;4.20;99.90;;;;;;5052224;28;20249;-43
2021/01/09 01:37:44;;;;;;;10.73;9.23;;;4.50;99.90;;;;;;5052139;28;20199;-44
2021/01/09 01:40:11;;;;;;;9.95;8.40;;;4.60;99.90;;;;;;5051921;28;20196;-45
2021/01/09 01:42:38;;;;;;;10.65;8.52;;;4.50;99.90;;;;;;5051743;28;20291;-45
2021/01/09 01:45:08;;;;;;;9.95;8.50;;;4.70;99.90;;;;;;5051705;28;20218;-45
2021/01/09 01:47:36;;;;;;;11.77;8.93;;;4.30;99.90;;;;;;5051764;28;20192;-46
2021/01/09 01:50:03;;;;;;;12.02;8.00;;;4.40;99.90;;;;;;5050463;28;20295;-46
2021/01/09 01:52:30;;;;;;;10.48;8.32;;;4.30;99.90;;;;;;5051300;28;20499;-46
2021/01/09 01:54:57;;;;;;;11.45;9.20;;;4.30;99.90;;;;;;5051873;28;20196;-44
2021/01/09 01:57:23;;;;;;;9.73;8.35;;;4.40;99.90;;;;;;5055858;28;20210;-44
2021/01/09 01:59:50;;;;;;;12.98;9.40;;;4.40;99.90;;;;;;5055448;28;20198;-43
2021/01/09 02:02:18;;;;;;;11.13;8.50;;;4.40;99.90;;;;;;5055464;28;20277;-45
2021/01/09 02:04:51;;;;;;;15.75;10.75;;;4.40;99.90;;;;;;5056061;28;20195;-45
2021/01/09 02:07:21;;;;;;;12.25;8.40;;;4.30;99.90;;;;;;5055231;28;20239;-46
2021/01/09 02:09:51;;;;;;;11.07;9.05;;;4.40;99.90;;;;;;5053720;28;20322;-44
2021/01/09 02:12:22;;;;;;;11.10;8.88;;;4.40;99.90;;;;;;5055589;28;20757;-45
2021/01/09 02:14:52;;;;;;;9.05;7.47;;;4.30;99.90;;;;;;5055706;28;20597;-45
2021/01/09 02:17:19;;;;;;;11.02;8.88;;;4.20;99.90;;;;;;5055591;28;20711;-45
2021/01/09 02:19:46;;;;;;;11.13;8.57;;;4.40;99.90;;;;;;5055057;28;20184;-45
2021/01/09 02:22:14;;;;;;;11.77;9.40;;;4.40;99.90;;;;;;5055555;28;20211;-46
2021/01/09 02:24:42;;;;;;;9.77;7.75;;;4.40;99.90;;;;;;5054574;28;20207;-45
2021/01/09 02:27:10;;;;;;;11.98;9.13;;;4.50;99.90;;;;;;5052076;28;20231;-46
2021/01/09 02:29:40;;;;;;;10.05;8.38;;;4.20;99.90;;;;;;5052900;28;20244;-46
2021/01/09 02:32:10;;;;;;;10.90;9.27;;;4.40;99.90;;;;;;5055728;28;20222;-46
2021/01/09 02:34:41;;;;;;;11.55;8.65;;;4.30;99.90;;;;;;5055409;28;20216;-46
2021/01/09 02:37:08;;;;;;;10.82;8.50;;;4.50;99.90;;;;;;5056129;28;20572;-45
2021/01/09 02:39:35;;;;;;;12.65;8.93;;;4.50;99.90;;;;;;5055907;28;20454;-46
2021/01/09 02:42:04;;;;;;;12.07;8.77;;;4.40;99.90;;;;;;5056063;28;20224;-44
2021/01/09 02:44:32;;;;;;;12.00;9.30;;;4.60;99.90;;;;;;5054336;28;20200;-45
2021/01/09 02:46:59;;;;;;;11.35;8.43;;;4.70;99.90;;;;;;5055447;28;20648;-45
2021/01/09 02:49:26;;;;;;;11.93;8.90;;;4.70;99.90;;;;;;5055699;28;20212;-45
2021/01/09 02:51:53;;;;;;;10.13;7.88;;;4.60;99.90;;;;;;5056396;28;20254;-45
2021/01/09 02:54:19;;;;;;;11.40;8.85;;;4.60;99.90;;;;;;5057179;28;20590;-44
2021/01/09 02:56:46;;;;;;;10.25;8.35;;;4.60;99.90;;;;;;5058247;28;20219;-46
2021/01/09 02:59:13;;;;;;;9.68;8.05;;;4.50;99.90;;;;;;5059624;28;20184;-46
2021/01/09 03:01:40;;;;;;;11.23;8.85;;;4.70;99.90;;;;;;5060210;28;20223;-46
2021/01/09 03:04:07;;;;;;;9.50;8.35;;;4.60;99.90;;;;;;5057959;28;20237;-46
2021/01/09 03:06:34;;;;;;;9.65;8.20;;;4.40;99.90;;;;;;5055572;28;20204;-45
2021/01/09 03:09:00;;;;;;;9.57;7.63;;;4.30;99.90;;;;;;5055299;28;20243;-45
2021/01/09 03:11:28;;;;;;;10.23;8.60;;;4.30;99.90;;;;;;5055186;28;20277;-45
2021/01/09 03:13:55;;;;;;;9.23;7.70;;;4.10;99.90;;;;;;5054751;28;20192;-45
2021/01/09 03:16:22;;;;;;;9.85;8.10;;;4.30;99.90;;;;;;5055001;28;20558;-44
2021/01/09 03:18:48;;;;;;;9.00;7.60;;;4.30;99.90;;;;;;5054665;28;20597;-44
2021/01/09 03:21:15;;;;;;;8.93;7.45;;;4.20;99.90;;;;;;5054348;28;20718;-43
2021/01/09 03:23:41;;;;;;;8.50;7.60;;;4.40;99.90;;;;;;5052895;28;20239;-45
2021/01/09 03:26:08;;;;;;;10.15;7.50;;;4.60;99.90;;;;;;5055920;28;20211;-45
2021/01/09 03:28:34;;;;;;;8.98;7.30;;;4.60;99.90;;;;;;5056131;28;20256;-45
2021/01/09 03:31:01;;;;;;;9.65;7.40;;;4.30;99.90;;;;;;5055936;28;20220;-44
2021/01/09 03:33:29;;;;;;;12.13;8.00;;;4.50;99.90;;;;;;5054607;28;20265;-44
2021/01/09 03:35:55;;;;;;;8.63;7.50;;;4.40;99.90;;;;;;5054454;28;20192;-44
2021/01/09 03:38:22;;;;;;;10.02;8.43;;;4.60;99.90;;;;;;5054207;28;20599;-46
2021/01/09 03:40:49;;;;;;;9.77;7.75;;;4.60;99.90;;;;;;5053790;28;20212;-46
2021/01/09 03:43:15;;;;;;;10.38;8.45;;;4.40;99.90;;;;;;5053782;28;20192;-46
2021/01/09 03:45:42;;;;;;;10.77;8.18;;;4.70;99.90;;;;;;5052618;28;20250;-45
2021/01/09 03:48:08;;;;;;;12.65;10.10;;;4.50;99.90;;;;;;5053805;28;20398;-46
2021/01/09 03:50:36;;;;;;;12.40;9.95;;;4.30;99.90;;;;;;5053794;28;20216;-46
2021/01/09 03:53:02;;;;;;;12.57;10.30;;;4.30;99.90;;;;;;5053769;28;20212;-46
2021/01/09 03:55:29;;;;;;;12.77;10.68;;;4.60;99.90;;;;;;5053627;28;20188;-46
2021/01/09 03:57:56;;;;;;;14.85;11.98;;;4.40;99.90;;;;;;5053676;28;20236;-46
2021/01/09 04:00:22;;;;;;;14.60;12.02;;;4.50;99.90;;;;;;5053177;28;20653;-46
2021/01/09 04:02:49;;;;;;;14.82;12.27;;;4.20;99.90;;;;;;5053736;28;20196;-46
2021/01/09 04:05:15;;;;;;;13.82;11.50;;;4.60;99.90;;;;;;5053460;28;20192;-46
2021/01/09 04:07:43;;;;;;;13.52;11.27;;;4.60;99.90;;;;;;5053123;28;20192;-46
2021/01/09 04:10:10;;;;;;;14.93;10.73;;;4.50;99.90;;;;;;5053124;28;20192;-46
2021/01/09 04:12:36;;;;;;;12.77;9.73;;;4.30;99.90;;;;;;5052928;28;20245;-46
2021/01/09 04:15:04;;;;;;;12.60;10.20;;;4.20;99.90;;;;;;5053189;28;20200;-46
2021/01/09 04:17:30;;;;;;;11.75;9.60;;;4.20;99.90;;;;;;5053180;28;20218;-46
2021/01/09 04:19:57;;;;;;;11.13;9.13;;;4.00;99.90;;;;;;5053309;28;20260;-46
2021/01/09 04:22:23;;;;;;;10.32;8.30;;;4.10;99.90;;;;;;5051580;28;20274;-46
2021/01/09 04:24:51;;;;;;;10.93;8.55;;;4.10;99.90;;;;;;5053081;28;20203;-46
2021/01/09 04:27:17;;;;;;;11.23;9.05;;;4.10;99.90;;;;;;5053045;28;20202;-46
2021/01/09 04:29:44;;;;;;;10.18;8.38;;;4.20;99.90;;;;;;5052842;28;20215;-46
2021/01/09 04:32:10;;;;;;;11.90;8.52;;;4.00;99.90;;;;;;5052882;28;20265;-45
2021/01/09 04:34:37;;;;;;;11.25;8.52;;;4.20;99.90;;;;;;5052906;28;20200;-46
2021/01/09 04:37:04;;;;;;;11.93;9.00;;;4.10;99.90;;;;;;5054187;28;20200;-46
2021/01/09 04:39:30;;;;;;;11.45;9.65;;;4.00;99.90;;;;;;5055504;28;20218;-46
2021/01/09 04:41:58;;;;;;;10.63;8.40;;;3.80;99.90;;;;;;5055729;28;20575;-46
2021/01/09 04:44:24;;;;;;;10.40;8.90;;;3.90;99.90;;;;;;5054667;28;20567;-45
2021/01/09 04:46:52;;;;;;;12.55;9.20;;;4.00;99.90;;;;;;5052251;28;20227;-45
2021/01/09 04:49:19;;;;;;;11.23;7.82;;;4.00;99.90;;;;;;5053494;28;20684;-46
2021/01/09 04:51:47;;;;;;;12.20;8.68;;;4.30;99.90;;;;;;5052565;28;20220;-46
2021/01/09 04:54:15;;;;;;;11.90;9.40;;;4.30;99.90;;;;;;5053767;28;20698;-46
2021/01/09 04:56:44;;;;;;;11.68;8.85;;;4.00;99.90;;;;;;5052585;28;20225;-45
2021/01/09 04:59:12;;;;;;;11.73;9.90;;;4.00;99.90;;;;;;5054308;28;20188;-46
2021/01/09 05:01:40;;;;;;;12.98;8.18;;;4.10;99.90;;;;;;5053942;28;20223;-46
2021/01/09 05:04:07;;;;;;;11.70;8.65;;;3.60;99.90;;;;;;5052646;28;20200;-46
2021/01/09 05:06:33;;;;;;;11.43;9.05;;;3.80;99.90;;;;;;5052258;28;20207;-46
2021/01/09 05:09:00;;;;;;;12.60;10.00;;;4.10;99.90;;;;;;5052238;28;20247;-45
2021/01/09 05:11:26;;;;;;;12.30;9.55;;;3.70;99.90;;;;;;5052086;28;20239;-46
2021/01/09 05:13:54;;;;;;;12.60;9.55;;;3.70;99.90;;;;;;5052013;28;20192;-46
2021/01/09 05:16:21;;;;;;;13.73;10.30;;;3.40;99.90;;;;;;5052062;28;20187;-46
2021/01/09 05:18:48;;;;;;;13.23;9.52;;;3.80;99.90;;;;;;5052110;28;20211;-45
2021/01/09 05:21:16;;;;;;;11.20;8.73;;;3.60;99.90;;;;;;5050743;28;20248;-46
2021/01/09 05:23:51;;;;;;;9.80;7.30;;;3.80;99.90;;;;;;5051558;28;20265;-45
2021/01/09 05:26:18;;;;;;;11.65;7.90;;;3.60;99.90;;;;;;5050681;28;20226;-46
2021/01/09 05:28:47;;;;;;;9.25;7.05;;;3.70;99.90;;;;;;5051908;28;20236;-45
2021/01/09 05:31:15;;;;;;;10.52;7.38;;;3.60;99.90;;;;;;5050584;28;20228;-46
2021/01/09 05:33:43;;;;;;;9.40;7.20;;;3.50;99.90;;;;;;5051545;28;20578;-46
2021/01/09 05:36:10;;;;;;;13.07;8.80;;;3.80;99.90;;;;;;5050706;28;20207;-46
2021/01/09 05:38:39;;;;;;;9.63;7.18;;;3.40;99.90;;;;;;5052146;28;20207;-46
2021/01/09 05:41:07;;;;;;;9.63;7.22;;;3.50;99.90;;;;;;5051890;28;20266;-46
2021/01/09 05:43:33;;;;;;;9.25;6.90;;;3.30;99.90;;;;;;5051594;28;20221;-45
2021/01/09 05:46:01;;;;;;;10.70;7.43;;;3.40;99.90;;;;;;5051738;28;20222;-45
2021/01/09 05:48:29;;;;;;;9.82;7.13;;;3.30;99.90;;;;;;5051695;28;20211;-45
2021/01/09 05:50:57;;;;;;;10.63;7.88;;;3.60;99.90;;;;;;5051533;28;20223;-45
2021/01/09 05:53:37;;;;;;;10.88;7.82;;;3.50;99.90;;;;;;5050146;28;20200;-45
2021/01/09 05:56:04;;;;;;;8.93;6.60;;;3.50;99.90;;;;;;5051501;28;20203;-45
2021/01/09 05:58:32;;;;;;;9.70;6.60;;;3.70;99.90;;;;;;5052313;28;20184;-47
2021/01/09 06:00:59;;;;;;;9.52;7.45;;;3.70;99.90;;;;;;5052058;28;20223;-45
2021/01/09 06:03:40;;;;;;;8.80;7.03;;;3.40;99.90;;;;;;5052452;28;20213;-45
2021/01/09 06:06:23;;;;;;;8.18;7.32;;;3.40;99.90;;;;;;5056047;28;20207;-45
2021/01/09 06:08:55;;;;;;;10.80;7.43;;;3.60;99.90;;;;;;5055559;28;20211;-45
2021/01/09 06:11:30;;;;;;;8.52;6.65;;;3.80;99.90;;;;;;5055878;28;20692;-45
2021/01/09 06:14:01;;;;;;;8.68;6.25;;;3.60;99.90;;;;;;5053716;28;20203;-45
2021/01/09 06:16:29;;;;;;;9.15;7.00;;;3.60;99.90;;;;;;5055444;28;20202;-45
2021/01/09 06:18:57;;;;;;;11.48;7.75;;;3.50;99.90;;;;;;5055364;28;20601;-45
2021/01/09 06:21:25;;;;;;;9.85;7.72;;;3.50;99.90;;;;;;5055221;28;20238;-45
2021/01/09 06:23:54;;;;;;;10.40;7.75;;;3.70;99.90;;;;;;5054897;28;20577;-45
2021/01/09 06:26:22;;;;;;;10.50;8.00;;;3.70;99.90;;;;;;5055471;28;20265;-45
2021/01/09 06:28:51;;;;;;;11.75;8.30;;;3.50;99.90;;;;;;5055447;28;20223;-46
2021/01/09 06:31:22;;;;;;;10.50;7.40;;;3.40;99.90;;;;;;5054813;28;20268;-45
2021/01/09 06:33:51;;;;;;;11.68;8.20;;;3.60;99.90;;;;;;5054989;28;20195;-44
2021/01/09 06:36:19;;;;;;;9.02;7.65;;;3.30;99.90;;;;;;5055302;28;20199;-45
2021/01/09 06:38:48;;;;;;;15.55;8.40;;;3.80;99.90;;;;;;5055169;28;20234;-45
2021/01/09 06:41:17;;;;;;;11.30;8.52;;;3.60;99.90;;;;;;5055076;28;20311;-45
2021/01/09 06:43:49;;;;;;;11.13;8.75;;;3.30;99.90;;;;;;5053413;28;20290;-45
2021/01/09 06:46:30;;;;;;;11.80;8.40;;;3.60;99.90;;;;;;5055243;28;20192;-44
2021/01/09 06:48:57;;;;;;;13.90;9.35;;;3.50;99.90;;;;;;5055109;28;20261;-45
2021/01/09 06:51:43;;;;;;;10.70;7.70;;;3.40;99.90;;;;;;5055027;28;20338;-44
2021/01/09 06:54:42;;;;;;;12.45;8.30;;;3.30;99.90;;;;;;5054678;28;20211;-44
2021/01/09 06:57:10;;;;;;;10.63;7.93;;;3.30;99.90;;;;;;5053616;28;20207;-45
2021/01/09 06:59:38;;;;;;;10.02;6.95;;;3.20;99.90;;;;;;5054606;28;20595;-44
2021/01/09 07:02:16;;;;;;;10.68;7.63;;;2.70;99.90;;;;;;5054762;28;20224;-45
2021/01/09 07:05:05;;;;;;;8.13;6.72;;;3.50;99.90;;;;;;5054587;28;20195;-44
2021/01/09 07:07:33;;;;;;;11.35;7.80;;;3.40;99.90;;;;;;5050417;28;20219;-44
2021/01/09 07:10:07;;;;;;;8.80;6.65;;;2.90;99.90;;;;;;5054556;28;20223;-44
2021/01/09 07:12:35;;;;;;;11.70;7.18;;;3.50;99.90;;;;;;5054606;28;20227;-44
2021/01/09 07:15:06;;;;;;;9.50;7.35;;;3.70;99.90;;;;;;5053950;28;20227;-44
2021/01/09 07:17:35;;;;;;;9.75;7.13;;;3.60;99.90;;;;;;5054499;28;20200;-45
2021/01/09 07:20:05;;;;;;;11.32;7.60;;;3.60;99.90;;;;;;5054843;28;20191;-44
2021/01/09 07:22:33;;;;;;;10.00;7.50;;;3.50;99.90;;;;;;5053049;28;20222;-44
2021/01/09 07:25:04;;;;;;;7.70;6.60;;;3.50;99.90;;;;;;5054877;28;20203;-45
2021/01/09 07:27:44;;;;;;;7.30;6.07;;;3.30;99.90;;;;;;5055535;28;20678;-46
2021/01/09 07:30:16;;;;;;;8.15;6.03;;;3.60;99.90;;;;;;5056267;28;20211;-46
2021/01/09 07:32:50;;;;;;;8.13;6.13;;;3.80;99.90;;;;;;5056516;28;20192;-45
2021/01/09 07:35:27;;;;;;;7.70;6.07;;;3.60;99.90;;;;;;5057036;28;20202;-45
2021/01/09 07:37:59;;;;;;;8.70;6.22;;;3.60;99.90;;;;;;5057277;28;20305;-45
2021/01/09 07:40:32;;;;;;;8.13;6.13;;;3.80;99.90;;;;;;5054741;28;20204;-46
2021/01/09 07:42:59;;;;;;;7.45;5.70;;;3.90;99.90;;;;;;5054040;28;20196;-46
2021/01/09 07:45:31;;;;;;;8.60;6.63;;;3.80;99.90;;;;;;5054281;28;20250;-45
2021/01/09 07:47:58;;;;;;;12.02;8.45;;;3.50;99.90;;;;;;5054011;28;20639;-46
2021/01/09 07:50:25;;;;;;;13.20;8.80;;;3.40;99.90;;;;;;5053901;28;20230;-46
2021/01/09 07:53:05;;;;;;;11.40;8.50;;;3.80;99.90;;;;;;5053676;28;20550;-46
2021/01/09 07:55:45;;;;;;;11.35;7.55;;;3.50;99.90;;;;;;5053847;28;20204;-46
2021/01/09 07:58:12;;;;;;;10.20;7.93;;;3.60;99.90;;;;;;5053856;28;20629;-46
2021/01/09 08:00:42;;;;;;;12.52;8.57;;;3.50;99.90;;;;;;5053625;28;20245;-46
2021/01/09 08:03:10;;;;;;;12.18;8.88;;;3.90;99.90;;;;;;5053242;28;20219;-46
2021/01/09 08:05:37;;;;;;;12.10;8.68;;;3.70;99.90;;;;;;5053627;28;20193;-46
2021/01/09 08:08:05;;;;;;;14.30;9.02;;;3.80;99.90;;;;;;5053540;28;20656;-46
2021/01/09 08:10:33;;;;;;;11.95;9.07;;;3.50;99.90;;;;;;5054163;28;20593;-45
2021/01/09 08:13:02;;;;;;;12.00;9.55;;;3.70;99.90;;;;;;5053898;28;20192;-45
2021/01/09 08:15:30;;;;;;;13.93;9.23;;;3.40;99.90;;;;;;5053899;28;20231;-45
2021/01/09 08:18:00;;;;;;;11.27;9.18;;;3.50;99.90;;;;;;5054143;28;20215;-45
2021/01/09 08:20:27;;;;;;;9.18;8.10;;;3.50;99.90;;;;;;5057167;28;20188;-45
2021/01/09 08:22:56;;;;;;;13.77;9.45;;;3.70;99.90;;;;;;5052140;28;20684;-45
2021/01/09 08:25:24;;;;;;;11.82;8.63;;;3.50;99.90;;;;;;5053632;28;20269;-45
2021/01/09 08:27:53;;;;;;;10.88;8.50;;;3.80;99.90;;;;;;5052949;28;20196;-45
2021/01/09 08:30:24;;;;;;;12.93;9.27;;;3.60;99.90;;;;;;5053347;28;20238;-46
2021/01/09 08:32:50;;;;;;;12.23;10.02;;;3.70;99.90;;;;;;5053504;28;20645;-45
2021/01/09 08:35:17;;;;;;;11.57;8.40;;;3.70;99.90;;;;;;5052087;28;20219;-45
2021/01/09 08:37:44;;;;;;;10.52;8.48;;;3.80;99.90;;;;;;5053497;28;20192;-44
2021/01/09 08:40:19;;;;;;;12.73;9.25;;;3.80;99.90;;;;;;5053911;28;20271;-44
2021/01/09 08:43:04;;;;;;;12.55;9.00;;;3.70;99.90;;;;;;5056552;28;20656;-45
2021/01/09 08:45:43;;;;;;;11.07;9.10;;;3.90;99.90;;;;;;5059365;28;20607;-45
2021/01/09 08:48:11;;;;;;;13.23;10.30;;;3.90;99.90;;;;;;5059020;28;20322;-45
2021/01/09 08:50:57;;;;;;;12.77;9.23;;;3.80;99.90;;;;;;5057771;28;20273;-44
2021/01/09 08:53:27;;;;;;;12.65;9.07;;;3.80;99.90;;;;;;5050674;28;20212;-45
2021/01/09 08:56:01;;;;;;;10.45;8.70;;;3.80;99.90;;;;;;5053509;28;20294;-46
2021/01/09 08:58:30;;;;;;;10.05;8.30;;;4.20;99.90;;;;;;5053325;28;20275;-44
2021/01/09 09:01:01;;;;;;;14.63;10.15;;;4.00;99.90;;;;;;5052861;28;20223;-45
2021/01/09 09:03:28;;;;;;;11.70;8.73;;;4.00;99.90;;;;;;5052867;28;20196;-44
2021/01/09 09:05:57;;;;;;;11.98;9.05;;;4.10;99.90;;;;;;5052638;28;20219;-46
2021/01/09 09:08:27;;;;;;;12.35;9.07;;;3.80;99.90;;;;;;5054936;28;20187;-44
2021/01/09 09:10:55;;;;;;;13.10;9.45;;;3.80;99.90;;;;;;5056104;28;20215;-45
2021/01/09 09:13:24;;;;;;;14.43;9.93;;;3.60;99.90;;;;;;5056106;28;20200;-45
2021/01/09 09:15:51;;;;;;;17.02;12.40;;;3.60;99.90;;;;;;5053752;28;20188;-46
2021/01/09 09:18:20;;;;;;;14.60;10.98;;;3.90;99.90;;;;;;5053038;28;20195;-46
2021/01/09 09:20:49;;;;;;;13.93;9.38;;;4.00;99.90;;;;;;5052569;28;20237;-46
2021/01/09 09:23:17;;;;;;;22.67;14.38;;;4.10;99.90;;;;;;5051587;28;20188;-46
2021/01/09 09:25:44;;;;;;;16.38;11.23;;;3.90;99.90;;;;;;5052552;28;20562;-46
2021/01/09 09:28:10;;;;;;;17.65;11.82;;;3.70;99.90;;;;;;5052173;28;20188;-46
2021/01/09 09:30:37;;;;;;;19.35;13.20;;;4.00;99.90;;;;;;5052031;28;20227;-46
2021/01/09 09:33:14;;;;;;;20.80;12.45;;;4.10;99.90;;;;;;5051691;28;20200;-46
2021/01/09 09:35:42;;;;;;;20.90;11.50;;;4.00;99.90;;;;;;5052123;28;20199;-47
2021/01/09 09:38:11;;;;;;;19.70;12.23;;;4.20;99.90;;;;;;5051531;28;20542;-46
2021/01/09 09:40:39;;;;;;;31.38;22.05;;;4.00;99.90;;;;;;5051816;28;20211;-46
2021/01/09 09:43:13;;;;;;;19.98;11.93;;;4.10;99.90;;;;;;5050077;28;20605;-46
2021/01/09 09:45:40;;;;;;;19.40;11.80;;;3.80;99.90;;;;;;5051776;28;20203;-46
2021/01/09 09:48:07;;;;;;;19.17;11.68;;;4.00;99.90;;;;;;5051834;28;20191;-46
2021/01/09 09:50:35;;;;;;;16.23;11.25;;;3.90;99.90;;;;;;5051575;28;20231;-46
2021/01/09 09:53:05;;;;;;;16.52;11.63;;;3.60;99.90;;;;;;5051525;28;20203;-46
2021/01/09 09:55:32;;;;;;;20.90;12.77;;;3.80;99.90;;;;;;5051740;28;20295;-46
2021/01/09 09:58:06;;;;;;;20.50;12.15;;;3.80;99.90;;;;;;5051578;28;20188;-46
2021/01/09 10:00:32;;;;;;;18.90;11.63;;;4.10;99.90;;;;;;5051394;28;20220;-46
2021/01/09 10:02:59;;;;;;;20.88;12.05;;;3.80;99.90;;;;;;5099945;22;20257;-47
2021/01/09 10:05:26;;;;;;;20.40;12.15;;;3.90;99.90;;;;;;5092089;28;20216;-46
2021/01/09 10:08:12;;;;;;;17.70;10.95;;;3.80;99.90;;;;;;5092034;28;20233;-47
2021/01/09 10:10:39;;;;;;;20.20;11.98;;;4.10;99.90;;;;;;5091981;28;20214;-47
2021/01/09 10:13:06;;;;;;;19.45;12.45;;;4.00;99.90;;;;;;5091741;28;20232;-47
2021/01/09 10:15:33;;;;;;;17.33;10.73;;;4.10;99.90;;;;;;5091942;28;20198;-45
2021/01/09 10:18:01;;;;;;;26.30;13.20;;;3.90;99.90;;;;;;5092029;28;20206;-45
2021/01/09 10:20:28;;;;;;;16.75;10.98;;;4.10;99.90;;;;;;5091705;28;20270;-46
2021/01/09 10:22:54;;;;;;;23.33;13.45;;;3.70;99.90;;;;;;5091071;28;20639;-45
2021/01/09 10:25:22;;;;;;;21.52;12.50;;;3.70;99.90;;;;;;5091978;28;20190;-46
2021/01/09 10:27:51;;;;;;;18.20;10.95;;;4.10;99.90;;;;;;5090628;28;20816;-46
2021/01/09 10:30:18;;;;;;;18.60;11.80;;;3.90;99.90;;;;;;5091784;28;20592;-46
2021/01/09 10:32:45;;;;;;;22.40;13.05;;;3.70;99.90;;;;;;5091162;28;20226;-46
2021/01/09 10:35:12;;;;;;;18.33;11.93;;;4.00;99.90;;;;;;5091695;28;20202;-46
2021/01/09 10:37:38;;;;;;;25.73;14.07;;;4.10;99.90;;;;;;5091630;28;20491;-47
2021/01/09 10:40:06;;;;;;;20.63;12.32;;;4.00;99.90;;;;;;5091697;28;20195;-47
2021/01/09 10:42:33;;;;;;;23.95;13.70;;;3.70;99.90;;;;;;5091107;28;20726;-46
2021/01/09 10:45:00;;;;;;;24.05;13.80;;;4.20;99.90;;;;;;5091561;28;20195;-46
2021/01/09 10:47:26;;;;;;;22.55;14.00;;;4.00;99.90;;;;;;5091917;28;20244;-46
2021/01/09 10:49:53;;;;;;;24.13;15.23;;;4.00;99.90;;;;;;5091554;28;20215;-46
2021/01/09 10:52:20;;;;;;;23.27;13.60;;;4.00;99.90;;;;;;5095310;28;20272;-47
2021/01/09 10:54:46;;;;;;;24.08;13.35;;;4.10;99.90;;;;;;5095784;28;20187;-46
2021/01/09 10:57:13;;;;;;;26.33;14.98;;;4.10;99.90;;;;;;5095164;28;20718;-46
2021/01/09 10:59:41;;;;;;;41.78;25.02;;;3.90;99.90;;;;;;5095197;28;20194;-46
2021/01/09 11:02:07;;;;;;;25.27;13.90;;;3.90;99.90;;;;;;5095355;28;20222;-47
2021/01/09 11:04:34;;;;;;;25.27;14.40;;;4.20;99.90;;;;;;5097238;28;20197;-45
2021/01/09 11:07:01;;;;;;;26.35;14.30;;;4.10;99.90;;;;;;5095109;28;20277;-46
2021/01/09 11:09:27;;;;;;;23.50;14.07;;;3.90;99.90;;;;;;5094806;28;20211;-47
2021/01/09 11:11:54;;;;;;;22.60;12.98;;;4.30;99.90;;;;;;5095097;28;20217;-46
2021/01/09 11:14:21;;;;;;;23.77;13.82;;;4.20;99.90;;;;;;5094918;28;20186;-45
2021/01/09 11:16:53;;;;;;;24.67;14.75;;;4.20;99.90;;;;;;5094830;28;20279;-46
2021/01/09 11:19:20;;;;;;;24.75;13.65;;;4.50;99.90;;;;;;5094734;28;20260;-47
2021/01/09 11:21:46;;;;;;;24.45;14.82;;;4.50;99.90;;;;;;5094273;28;20226;-45
2021/01/09 11:24:13;;;;;;;20.20;12.73;;;4.30;99.90;;;;;;5094387;28;20191;-45
2021/01/09 11:26:39;;;;;;;21.60;13.32;;;4.30;99.90;;;;;;5094337;28;20563;-48
2021/01/09 11:29:06;;;;;;;26.23;14.95;;;4.30;99.90;;;;;;5094338;28;20671;-46
2021/01/09 11:31:33;;;;;;;23.10;13.00;;;4.20;99.90;;;;;;5094610;28;20210;-46
2021/01/09 11:34:00;;;;;;;24.48;14.85;;;4.40;99.90;;;;;;5094088;28;20614;-46
2021/01/09 11:36:27;;;;;;;24.67;14.73;;;4.40;99.90;;;;;;5094022;28;20201;-46
2021/01/09 11:38:53;;;;;;;27.65;15.45;;;4.30;99.90;;;;;;5094230;28;20233;-46
2021/01/09 11:41:20;;;;;;;27.38;16.40;;;4.30;99.90;;;;;;5094551;28;20702;-46
2021/01/09 11:43:46;;;;;;;24.48;14.48;;;4.10;99.90;;;;;;5092535;28;20610;-45
2021/01/09 11:46:13;;;;;;;24.10;15.30;;;4.20;99.90;;;;;;5094104;28;20187;-46
2021/01/09 11:48:41;;;;;;;22.58;15.65;;;3.60;99.90;;;;;;5094037;28;20194;-47
2021/01/09 11:51:08;;;;;;;26.30;15.35;;;4.20;99.90;;;;;;5093906;28;20572;-47
2021/01/09 11:53:36;;;;;;;25.73;15.32;;;4.20;99.90;;;;;;5093425;28;20186;-47
2021/01/09 11:56:03;;;;;;;26.27;15.38;;;3.90;99.90;;;;;;5094161;28;20252;-46
2021/01/09 11:58:29;;;;;;;23.77;14.20;;;4.10;99.90;;;;;;5094030;28;20190;-45
2021/01/09 12:00:56;;;;;;;24.23;15.13;;;4.40;99.90;;;;;;5093478;28;20194;-46
2021/01/09 12:03:23;;;;;;;20.63;14.50;;;4.20;99.90;;;;;;5094667;28;20195;-47
2021/01/09 12:05:49;;;;;;;20.88;14.32;;;4.20;99.90;;;;;;5094194;28;20187;-46
2021/01/09 12:08:17;;;;;;;22.80;15.07;;;4.40;99.90;;;;;;5095741;28;20198;-46
2021/01/09 12:10:43;;;;;;;24.35;15.43;;;4.30;99.90;;;;;;5093893;28;20230;-46
2021/01/09 12:13:10;;;;;;;20.08;13.30;;;4.30;99.90;;;;;;5093309;28;20214;-45
2021/01/09 12:15:37;;;;;;;19.95;12.90;;;4.40;99.90;;;;;;5094034;28;20247;-46
2021/01/09 12:18:03;;;;;;;20.58;13.98;;;4.10;99.90;;;;;;5095376;28;20203;-45
2021/01/09 12:20:30;;;;;;;21.50;13.45;;;4.20;99.90;;;;;;5093864;28;20650;-46
2021/01/09 12:22:56;;;;;;;19.38;13.20;;;4.40;99.90;;;;;;5092845;28;20210;-45
2021/01/09 12:25:24;;;;;;;16.70;11.75;;;4.40;99.90;;;;;;5093981;28;20197;-46
2021/01/09 12:27:50;;;;;;;26.40;17.10;;;4.30;99.90;;;;;;5092288;28;20225;-46
2021/01/09 12:30:18;;;;;;;18.48;10.77;;;4.30;99.90;;;;;;5093679;28;20214;-46
2021/01/09 12:32:45;;;;;;;18.30;12.13;;;4.30;99.90;;;;;;5093182;28;20210;-46
2021/01/09 12:35:12;;;;;;;21.88;12.95;;;4.30;99.90;;;;;;5092934;28;20256;-46
2021/01/09 12:37:38;;;;;;;17.08;11.68;;;4.30;99.90;;;;;;5093757;28;20191;-46
2021/01/09 12:40:06;;;;;;;20.40;13.82;;;4.20;99.90;;;;;;5093534;28;20191;-44
2021/01/09 12:42:34;;;;;;;21.00;12.75;;;4.20;99.90;;;;;;5093318;28;20211;-46
2021/01/09 12:45:00;;;;;;;25.10;12.60;;;4.30;99.90;;;;;;5093014;28;20195;-46
2021/01/09 12:47:27;;;;;;;20.77;12.77;;;4.40;99.90;;;;;;5093057;28;20195;-45
2021/01/09 12:49:53;;;;;;;20.27;12.40;;;4.60;99.90;;;;;;5092398;28;20244;-48
2021/01/09 12:52:20;;;;;;;20.10;14.23;;;4.60;99.90;;;;;;5092662;28;20207;-46